< Cyclone 201605 2016 Season Cyclone 201609 >
Cyclone 201608 (Stan)
General InformationTrack Information on Google MapsDetailed Wind InformationList of All Images || ResourceGoogle EarthGE AnimationAtom FeedGeoJSON
Detalied Best Track (Time Zone = UTC)
Year Month Day Hour Lat. Long. Pressure (hPa) Wind (kt) Class Image Chart
2016 1 27 00 -12.9 118.5 1005 20 2 Image --
2016 1 27 06 -13.2 118.5 1005 20 2 Image --
2016 1 27 12 -13.9 118.4 1005 20 2 Image --
2016 1 27 18 -14.4 118.4 1003 25 2 Image --
2016 1 28 00 -15.3 118.2 1003 25 2 Image --
2016 1 28 06 -16.2 117.6 1000 25 2 Image --
2016 1 28 12 -16.4 117.8 998 25 2 Image --
2016 1 28 18 -16.7 117.9 998 30 2 Image --
2016 1 29 00 -17.1 118.0 996 30 2 Image --
2016 1 29 06 -17.5 118.1 990 35 3 Image --
2016 1 29 12 -17.6 118.2 990 40 3 Image --
2016 1 29 18 -17.8 118.3 987 45 3 Image --
2016 1 30 00 -17.9 118.6 984 50 4 Image --
2016 1 30 06 -18.6 118.9 980 55 4 Image --
2016 1 30 12 -19.1 119.3 980 50 4 Image --
2016 1 30 18 -19.8 119.8 980 50 4 Image --
2016 1 31 00 -21.2 120.0 987 40 3 Image --
2016 1 31 06 -22.4 120.2 993 30 2 Image --
2016 1 31 12 -24.2 122.1 999 20 2 Image --
2016 1 31 18 -26.1 124.1 998 20 2 Image --
2016 2 1 00 -27.9 126.0 997 20 2 Image --
< Cyclone 201605 2016 Season Cyclone 201609 >

Help